createdAt,value
2022-10-30T00:00:40.302Z,-2.65
2022-10-30T00:05:43.559Z,-2.37
2022-10-30T00:10:46.876Z,-2.36
2022-10-30T00:15:53.554Z,-2.28
2022-10-30T00:20:56.253Z,-2.24
2022-10-30T00:26:04.216Z,-2.29
2022-10-30T00:31:07.489Z,-2.21
2022-10-30T00:36:10.534Z,-2.19
2022-10-30T00:41:18.045Z,-2.19
2022-10-30T00:46:39.349Z,-2.17
2022-10-30T00:51:46.330Z,-2.16
2022-10-30T00:56:49.661Z,-2.21
2022-10-30T01:02:02.022Z,-2.18
2022-10-30T01:07:18.105Z,-2.19
2022-10-30T01:12:20.926Z,-2.23
2022-10-30T01:18:01.909Z,-2.15
2022-10-30T01:23:23.510Z,-2.15
2022-10-30T01:28:38.902Z,-2.12
2022-10-30T01:33:46.396Z,-2.09
2022-10-30T01:38:53.948Z,-2.02
2022-10-30T01:44:00.164Z,-2.07
2022-10-30T01:49:10.099Z,-2.10
2022-10-30T01:54:27.660Z,-2.17
2022-10-30T01:59:40.901Z,-1.98
2022-10-30T02:04:44.392Z,-2.03
2022-10-30T02:09:47.387Z,-2.22
2022-10-30T02:14:53.818Z,-2.03
2022-10-30T02:19:56.717Z,-1.94
2022-10-30T02:25:02.358Z,-1.88
2022-10-30T02:30:06.469Z,-1.78
2022-10-30T02:35:10.363Z,-1.75
2022-10-30T02:40:13.576Z,-1.62
2022-10-30T02:45:16.376Z,-1.67
2022-10-30T02:50:19.178Z,-1.76
2022-10-30T02:55:21.878Z,-1.53
2022-10-30T03:00:25.253Z,-1.32
2022-10-30T03:05:28.044Z,-1.46
2022-10-30T03:10:30.803Z,-1.32
2022-10-30T03:15:35.189Z,-1.21
2022-10-30T03:20:37.875Z,-1.23
2022-10-30T03:25:40.782Z,-0.91
2022-10-30T03:30:43.512Z,-0.86
2022-10-30T03:35:46.452Z,-0.80
2022-10-30T03:40:49.371Z,-0.88
2022-10-30T03:45:54.696Z,-0.65
2022-10-30T03:50:59.687Z,-0.60
2022-10-30T03:56:04.815Z,-0.37
2022-10-30T04:01:23.087Z,-0.31
2022-10-30T04:06:30.900Z,-0.25
2022-10-30T04:11:33.771Z,-0.12
2022-10-30T04:16:36.574Z,-0.08
2022-10-30T04:21:39.288Z,0.04
2022-10-30T04:26:42.147Z,0.23
2022-10-30T04:31:45.679Z,0.37
2022-10-30T04:36:49.586Z,0.23
2022-10-30T04:41:52.905Z,0.24
2022-10-30T04:47:02.409Z,0.55
2022-10-30T04:52:05.080Z,0.68
2022-10-30T04:57:08.062Z,0.85
2022-10-30T05:02:11.297Z,0.90
2022-10-30T05:07:14.408Z,0.97
2022-10-30T05:12:19.006Z,0.99
2022-10-30T05:17:28.332Z,1.10
2022-10-30T05:22:31.545Z,1.12
2022-10-30T05:27:34.316Z,1.08
2022-10-30T05:32:38.124Z,1.31
2022-10-30T05:37:40.844Z,1.36
2022-10-30T05:42:50.174Z,1.47
2022-10-30T05:48:03.568Z,1.58
2022-10-30T05:53:11.061Z,1.59
2022-10-30T05:58:15.272Z,1.49
2022-10-30T06:03:20.192Z,1.49
2022-10-30T06:08:23.155Z,1.50
2022-10-30T06:13:29.909Z,1.66
2022-10-30T06:18:44.636Z,1.77
2022-10-30T06:23:50.661Z,1.66
2022-10-30T06:29:19.560Z,1.52
2022-10-30T06:34:22.457Z,1.51
2022-10-30T06:39:27.447Z,1.49
2022-10-30T06:44:50.424Z,1.48
2022-10-30T06:49:53.268Z,1.40
2022-10-30T06:54:56.188Z,1.50
2022-10-30T07:00:18.026Z,1.59
2022-10-30T07:05:58.977Z,1.67
2022-10-30T07:11:01.921Z,1.74
2022-10-30T07:16:23.210Z,1.69
2022-10-30T07:21:27.017Z,1.82
2022-10-30T07:26:29.811Z,1.81
2022-10-30T07:31:42.607Z,1.98
2022-10-30T07:37:06.403Z,1.94
2022-10-30T07:42:18.900Z,1.96
2022-10-30T07:47:43.819Z,1.95
2022-10-30T07:53:09.343Z,1.93
2022-10-30T07:58:12.074Z,1.78
2022-10-30T08:03:32.992Z,1.64
2022-10-30T08:08:56.913Z,1.56
2022-10-30T08:14:02.384Z,1.58
2022-10-30T08:19:05.532Z,1.39
2022-10-30T08:24:08.812Z,1.31
2022-10-30T08:29:11.719Z,1.28
2022-10-30T08:34:15.070Z,1.47
2022-10-30T08:39:22.962Z,1.84
2022-10-30T08:44:51.684Z,2.08
2022-10-30T08:50:12.960Z,1.30
2022-10-30T08:55:16.213Z,0.82
2022-10-30T09:00:19.032Z,0.46
2022-10-30T09:05:40.484Z,0.10
2022-10-30T09:11:06.219Z,-0.23
2022-10-30T09:16:09.075Z,-0.42
2022-10-30T09:21:13.918Z,-0.25
2022-10-30T09:26:21.045Z,-0.04
2022-10-30T09:31:44.013Z,0.06
2022-10-30T09:36:50.996Z,-0.04
2022-10-30T09:42:13.388Z,-0.21
2022-10-30T09:47:44.402Z,-0.21
2022-10-30T09:52:56.623Z,-0.23
2022-10-30T09:58:13.060Z,-0.35
2022-10-30T10:03:35.611Z,-0.50
2022-10-30T10:09:21.290Z,-0.53
2022-10-30T10:14:43.531Z,-0.56
2022-10-30T10:19:55.800Z,-0.63
2022-10-30T10:24:58.531Z,-0.67
2022-10-30T10:30:20.849Z,-0.73
2022-10-30T10:35:54.637Z,-0.80
2022-10-30T10:41:09.312Z,-0.86
2022-10-30T10:46:35.210Z,-0.84
2022-10-30T10:51:52.471Z,-0.99
2022-10-30T10:56:56.027Z,-1.08
2022-10-30T11:02:54.397Z,-1.30
2022-10-30T11:08:02.642Z,-1.30
2022-10-30T11:13:05.378Z,-1.25
2022-10-30T11:18:10.276Z,-1.16
2022-10-30T11:23:32.621Z,-1.13
2022-10-30T11:28:54.853Z,-1.12
2022-10-30T11:33:57.561Z,-1.17
2022-10-30T11:39:10.124Z,-1.13
2022-10-30T11:44:13.028Z,-1.06
2022-10-30T11:49:52.872Z,-1.07
2022-10-30T11:55:03.942Z,-1.06
2022-10-30T12:00:14.557Z,-1.03
2022-10-30T12:05:26.396Z,-1.07
2022-10-30T12:10:30.992Z,-1.09
2022-10-30T12:15:37.762Z,-1.04
2022-10-30T12:20:41.128Z,-1.25
2022-10-30T12:25:47.813Z,-1.16
2022-10-30T12:31:24.038Z,-1.22
2022-10-30T12:36:29.570Z,-1.35
2022-10-30T12:41:36.957Z,-1.61
2022-10-30T12:46:56.460Z,-1.92
2022-10-30T12:52:18.307Z,-2.19
2022-10-30T12:57:25.847Z,-2.22
2022-10-30T13:02:49.042Z,-2.09
2022-10-30T13:07:59.085Z,-1.94
2022-10-30T13:13:10.162Z,-1.91
2022-10-30T13:18:23.589Z,-1.72
2022-10-30T13:23:50.866Z,-1.56
2022-10-30T13:29:05.022Z,-1.57
2022-10-30T13:34:30.109Z,-1.84
2022-10-30T13:39:41.202Z,-1.73
2022-10-30T13:44:43.810Z,-1.64
2022-10-30T13:50:16.615Z,-1.72
2022-10-30T13:55:28.270Z,-1.57
2022-10-30T14:01:00.258Z,-1.70
2022-10-30T14:06:14.765Z,-1.61
2022-10-30T14:11:17.459Z,-1.80
2022-10-30T14:16:32.189Z,-2.25
2022-10-30T14:21:55.073Z,-2.83
2022-10-30T14:27:04.742Z,-3.25
2022-10-30T14:32:16.335Z,-3.57
2022-10-30T14:37:27.790Z,-3.77
2022-10-30T14:42:42.590Z,-3.96
2022-10-30T14:47:51.104Z,-4.05
2022-10-30T14:53:10.757Z,-4.24
2022-10-30T14:58:33.343Z,-4.15
2022-10-30T15:03:54.605Z,-4.15
2022-10-30T15:09:15.898Z,-4.18
2022-10-30T15:14:53.679Z,-4.22
2022-10-30T15:19:58.720Z,-4.39
2022-10-30T15:25:03.314Z,-4.39
2022-10-30T15:30:07.248Z,-4.36
2022-10-30T15:35:23.145Z,-4.25
2022-10-30T15:40:26.028Z,-4.26
2022-10-30T15:45:35.869Z,-4.26
2022-10-30T15:50:43.397Z,-4.51
2022-10-30T15:55:46.231Z,-4.51
2022-10-30T16:00:57.571Z,-4.42
2022-10-30T16:06:13.436Z,-4.49
2022-10-30T16:11:16.567Z,-4.63
2022-10-30T16:16:29.388Z,-4.48
2022-10-30T16:21:33.140Z,-4.52
2022-10-30T16:26:37.485Z,-4.61
2022-10-30T16:31:42.383Z,-4.62
2022-10-30T16:36:45.155Z,-4.63
2022-10-30T16:41:48.547Z,-4.96
2022-10-30T16:46:53.640Z,-4.64
2022-10-30T16:52:14.348Z,-4.80
2022-10-30T16:57:25.376Z,-4.78
2022-10-30T17:02:31.655Z,-4.95
2022-10-30T17:07:34.333Z,-5.00
2022-10-30T17:12:36.909Z,-5.06
2022-10-30T17:17:41.494Z,-5.10
2022-10-30T17:22:44.348Z,-5.22
2022-10-30T17:27:51.416Z,-5.27
2022-10-30T17:32:55.301Z,-5.35
2022-10-30T17:38:01.722Z,-5.35
2022-10-30T17:43:05.971Z,-5.41
2022-10-30T17:48:18.783Z,-5.58
2022-10-30T17:53:25.323Z,-5.60
2022-10-30T17:58:28.172Z,-5.69
2022-10-30T18:03:30.803Z,-5.74
2022-10-30T18:08:34.310Z,-5.76
2022-10-30T18:13:36.921Z,-5.85
2022-10-30T18:18:39.983Z,-5.83
2022-10-30T18:23:53.110Z,-5.84
2022-10-30T18:28:56.411Z,-5.84
2022-10-30T18:33:59.164Z,-5.94
2022-10-30T18:39:01.844Z,-6.01
2022-10-30T18:44:05.046Z,-6.03
2022-10-30T18:49:07.838Z,-6.13
2022-10-30T18:54:17.010Z,-6.13
2022-10-30T18:59:19.733Z,-6.29
2022-10-30T19:04:22.792Z,-6.35
2022-10-30T19:09:25.527Z,-6.37
2022-10-30T19:14:28.259Z,-6.38
2022-10-30T19:19:31.006Z,-6.44
2022-10-30T19:24:33.660Z,-6.62
2022-10-30T19:29:36.606Z,-6.63
2022-10-30T19:34:44.587Z,-6.66
2022-10-30T19:39:47.287Z,-6.66
2022-10-30T19:44:49.913Z,-6.83
2022-10-30T19:49:52.570Z,-6.82
2022-10-30T19:54:55.188Z,-6.85
2022-10-30T19:59:57.838Z,-6.83
2022-10-30T20:05:00.508Z,-6.83
2022-10-30T20:10:03.231Z,-6.90
2022-10-30T20:15:06.324Z,-7.00
2022-10-30T20:20:14.305Z,-6.97
2022-10-30T20:25:17.485Z,-7.00
2022-10-30T20:30:23.389Z,-7.06
2022-10-30T20:35:26.223Z,-6.96
2022-10-30T20:40:29.752Z,-6.96
2022-10-30T20:45:32.807Z,-7.02
2022-10-30T20:50:35.498Z,-7.08
2022-10-30T20:55:38.337Z,-7.18
2022-10-30T21:00:41.274Z,-7.14
2022-10-30T21:05:46.083Z,-7.30
2022-10-30T21:10:49.090Z,-7.33
2022-10-30T21:15:51.958Z,-7.35
2022-10-30T21:20:54.623Z,-7.59
2022-10-30T21:26:04.500Z,-7.40
2022-10-30T21:31:13.616Z,-7.36
2022-10-30T21:36:20.211Z,-7.29
2022-10-30T21:41:25.149Z,-7.44
2022-10-30T21:46:30.054Z,-7.31
2022-10-30T21:51:33.013Z,-7.40
2022-10-30T21:56:36.402Z,-7.45
2022-10-30T22:01:40.973Z,-7.54
2022-10-30T22:06:45.477Z,-7.69
2022-10-30T22:11:48.215Z,-7.79
2022-10-30T22:16:51.126Z,-7.87
2022-10-30T22:21:53.763Z,-8.00
2022-10-30T22:26:56.547Z,-8.08
2022-10-30T22:31:59.241Z,-7.95
2022-10-30T22:37:01.994Z,-7.87
2022-10-30T22:42:04.725Z,-7.94
2022-10-30T22:47:07.437Z,-7.91
2022-10-30T22:52:10.061Z,-8.10
2022-10-30T22:57:12.781Z,-7.99
2022-10-30T23:02:15.668Z,-8.08
2022-10-30T23:07:18.614Z,-8.09
2022-10-30T23:12:21.342Z,-8.09
2022-10-30T23:17:24.077Z,-8.13
2022-10-30T23:22:28.585Z,-8.33
2022-10-30T23:27:31.449Z,-8.39
2022-10-30T23:32:34.177Z,-8.47
2022-10-30T23:37:36.907Z,-8.61
2022-10-30T23:42:39.597Z,-8.66
2022-10-30T23:47:42.858Z,-8.59
2022-10-30T23:52:45.684Z,-8.55
2022-10-30T23:57:49.409Z,-8.70
